This is the latest recevied weather packets stored in our database for station/object VK5KX. If no packets are shown the sender has not sent any weather packets the latest 10 day(s).
| Time | Temp. | Humidity | Pressure | Rain* | Wind** | Luminosity | Snow |
|---|---|---|---|---|---|---|---|
| 1777692659 | 17.78° C | 82% | 1009.7 hPa | 0.51 mm | - | - | - |
| 1777691753 | 18.89° C | 77% | 1009.7 hPa | 0.51 mm | - | - | - |
| 1777690822 | 19.44° C | 72% | 1009.8 hPa | 0 mm | - | - | - |
| 1777689921 | 20° C | 74% | 1009.2 hPa | 0 mm | - | - | - |
| 1777689021 | 19.44° C | 75% | 1009.3 hPa | 0 mm | - | - | - |
| 1777688118 | 20° C | 75% | 1009.6 hPa | 0 mm | - | - | - |
| 1777687216 | 20.56° C | 69% | 1009.7 hPa | 0 mm | - | - | - |
| 1777686319 | 21.67° C | 59% | 1009.3 hPa | 0 mm | - | - | - |
| 1777685414 | 21.67° C | 58% | 1009.4 hPa | 0 mm | - | - | - |
| 1777684522 | 21.67° C | 58% | 1009.5 hPa | 0 mm | - | - | - |
| 1777683615 | 21.11° C | 59% | 1009.7 hPa | 0 mm | - | - | - |
| 1777682713 | 21.67° C | 58% | 1009.9 hPa | 0 mm | - | - | - |
| 1777681813 | 21.67° C | 56% | 1009.9 hPa | 0 mm | - | - | - |
| 1777680913 | 21.11° C | 58% | 1009.8 hPa | 0.25 mm | - | - | - |
| 1777680012 | 20.56° C | 61% | 1009.9 hPa | 0.25 mm | - | - | - |
| 1777679111 | 20° C | 66% | 1009.9 hPa | 0.25 mm | - | - | - |
| 1777678217 | 20.56° C | 64% | 1010.1 hPa | 0.25 mm | - | - | - |
| 1777677303 | 21.11° C | 59% | 1010.2 hPa | 0 mm | - | - | - |
| 1777676459 | 22.78° C | 50% | 1010.2 hPa | 0 mm | - | - | - |
| 1777675557 | 23.89° C | 44% | 1009.9 hPa | 0 mm | - | - | - |
| 1777674656 | 23.89° C | 41% | 1009.5 hPa | 0 mm | - | - | - |
| 1777673756 | 23.89° C | 41% | 1009.4 hPa | 0 mm | - | - | - |
| 1777672895 | 24.44° C | 41% | 1009.1 hPa | 0 mm | - | - | - |
| 1777671953 | 23.89° C | 41% | 1008.1 hPa | 0 mm | - | - | - |
| 1777671061 | 23.89° C | 41% | 1008.3 hPa | 0 mm | - | - | - |
* Rain latest hour (hover to see other rain measurements)
** Current wind speed in m/s (hover to see current wind gust speed)